createdAt,value
2023-05-06T00:00:55.311Z,7.200
2023-05-06T00:02:55.478Z,8.520
2023-05-06T00:03:55.805Z,5.840
2023-05-06T00:05:55.191Z,8.542
2023-05-06T00:06:55.400Z,7.280
2023-05-06T00:07:54.825Z,2.600
2023-05-06T00:08:55.222Z,7.000
2023-05-06T00:09:55.483Z,8.105
2023-05-06T00:10:54.619Z,7.973
2023-05-06T00:11:54.813Z,9.760
2023-05-06T00:12:55.201Z,6.560
2023-05-06T00:13:55.509Z,6.059
2023-05-06T00:14:54.697Z,5.614
2023-05-06T00:15:55.061Z,8.080
2023-05-06T00:16:55.400Z,7.440
2023-05-06T00:17:54.806Z,8.960
2023-05-06T00:18:55.489Z,9.679
2023-05-06T00:19:54.646Z,7.241
2023-05-06T00:20:54.790Z,5.360
2023-05-06T00:21:54.970Z,4.400
2023-05-06T00:22:55.264Z,4.000
2023-05-06T00:23:55.469Z,3.777
2023-05-06T00:25:54.910Z,3.920
2023-05-06T00:26:55.127Z,5.360
2023-05-06T00:27:55.466Z,3.384
2023-05-06T00:28:54.631Z,1.871
2023-05-06T00:29:54.885Z,2.960
2023-05-06T00:30:55.112Z,7.120
2023-05-06T00:31:55.394Z,8.120
2023-05-06T00:32:55.567Z,8.577
2023-05-06T00:33:55.052Z,7.892
2023-05-06T00:34:55.164Z,3.520
2023-05-06T00:35:55.361Z,3.560
2023-05-06T00:36:54.622Z,5.120
2023-05-06T00:37:54.760Z,6.480
2023-05-06T00:38:54.986Z,5.440
2023-05-06T00:39:55.170Z,6.040
2023-05-06T00:40:55.380Z,5.600
2023-05-06T00:41:54.650Z,5.200
2023-05-06T00:42:54.896Z,4.880
2023-05-06T00:43:55.082Z,3.920
2023-05-06T00:44:55.275Z,3.040
2023-05-06T00:45:54.954Z,3.840
2023-05-06T00:46:55.514Z,6.256
2023-05-06T00:47:54.736Z,4.881
2023-05-06T00:48:55.346Z,4.400
2023-05-06T00:49:55.526Z,4.485
2023-05-06T00:50:54.718Z,6.264
2023-05-06T00:51:54.857Z,3.440
2023-05-06T00:52:55.095Z,4.160
2023-05-06T00:53:55.281Z,6.880
2023-05-06T00:54:55.544Z,6.295
2023-05-06T00:55:54.904Z,4.963
2023-05-06T00:56:55.189Z,6.160
2023-05-06T00:57:55.409Z,4.160
2023-05-06T00:58:54.529Z,2.800
2023-05-06T00:59:54.724Z,3.040
2023-05-06T01:00:54.973Z,3.120
2023-05-06T01:01:55.499Z,2.046
2023-05-06T01:02:54.949Z,3.092
2023-05-06T01:03:55.260Z,3.360
2023-05-06T01:04:55.400Z,2.520
2023-05-06T01:05:55.403Z,4.328
2023-05-06T01:06:55.527Z,5.120
2023-05-06T01:07:54.729Z,5.288
2023-05-06T01:08:54.946Z,5.600
2023-05-06T01:09:55.079Z,7.520
2023-05-06T01:10:55.332Z,3.600
2023-05-06T01:11:54.531Z,7.200
2023-05-06T01:12:54.805Z,6.840
2023-05-06T01:13:55.341Z,2.640
2023-05-06T01:14:54.565Z,2.880
2023-05-06T01:15:55.250Z,4.400
2023-05-06T01:16:55.641Z,5.390
2023-05-06T01:17:55.447Z,4.556
2023-05-06T01:20:55.213Z,6.640
2023-05-06T01:21:55.502Z,8.184
2023-05-06T01:22:54.960Z,7.647
2023-05-06T01:23:55.236Z,10.080
2023-05-06T01:24:55.040Z,5.520
2023-05-06T01:25:55.400Z,8.720
2023-05-06T01:28:55.179Z,6.360
2023-05-06T01:29:55.443Z,7.239
2023-05-06T01:30:54.766Z,7.363
2023-05-06T01:31:55.402Z,9.800
2023-05-06T01:32:55.617Z,10.544
2023-05-06T01:33:55.048Z,10.373
2023-05-06T01:34:55.584Z,8.600
2023-05-06T01:35:54.926Z,7.200
2023-05-06T01:36:55.143Z,8.240
2023-05-06T01:37:55.357Z,7.600
2023-05-06T01:38:55.556Z,7.633
2023-05-06T01:39:54.743Z,8.054
2023-05-06T01:40:55.146Z,7.440
2023-05-06T01:41:55.388Z,8.560
2023-05-06T01:42:54.718Z,4.080
2023-05-06T01:43:54.955Z,0.640
2023-05-06T01:44:55.146Z,0.800
2023-05-06T01:45:54.638Z,6.240
2023-05-06T01:46:55.401Z,5.920
2023-05-06T01:47:54.712Z,4.240
2023-05-06T01:48:55.194Z,2.240
2023-05-06T01:49:55.375Z,2.640
2023-05-06T01:50:55.546Z,3.462
2023-05-06T01:51:54.732Z,5.817
2023-05-06T01:52:54.887Z,10.400
2023-05-06T01:53:55.163Z,9.120
2023-05-06T01:54:55.368Z,6.880
2023-05-06T01:55:54.949Z,5.840
2023-05-06T01:56:55.241Z,2.800
2023-05-06T01:57:55.462Z,4.957
2023-05-06T01:58:54.618Z,6.142
2023-05-06T01:59:54.989Z,8.960
2023-05-06T02:00:55.140Z,4.960
2023-05-06T02:01:55.490Z,2.560
2023-05-06T02:03:55.757Z,5.840
2023-05-06T02:04:54.947Z,3.680
2023-05-06T02:05:55.065Z,1.760
2023-05-06T02:08:55.193Z,2.920
2023-05-06T02:09:55.369Z,6.320
2023-05-06T02:10:54.550Z,4.240
2023-05-06T02:11:54.727Z,1.840
2023-05-06T02:12:55.074Z,1.760
2023-05-06T02:13:54.693Z,4.080
2023-05-06T02:14:54.851Z,5.120
2023-05-06T02:15:55.203Z,2.840
2023-05-06T02:16:54.651Z,3.040
2023-05-06T02:17:54.888Z,3.960
2023-05-06T02:18:55.189Z,1.880
2023-05-06T02:19:55.383Z,4.560
2023-05-06T02:20:54.634Z,4.520
2023-05-06T02:21:54.798Z,4.000
2023-05-06T02:22:55.067Z,5.040
2023-05-06T02:23:55.238Z,7.480
2023-05-06T02:24:55.513Z,1.652
2023-05-06T02:25:55.248Z,0.692
2023-05-06T02:26:55.426Z,5.508
2023-05-06T02:27:54.759Z,7.607
2023-05-06T02:28:54.999Z,5.920
2023-05-06T02:29:55.168Z,9.120
2023-05-06T02:30:55.418Z,8.080
2023-05-06T02:31:54.669Z,7.040
2023-05-06T02:32:55.266Z,4.320
2023-05-06T02:35:55.527Z,6.807
2023-05-06T02:36:54.999Z,9.844
2023-05-06T02:37:55.147Z,10.520
2023-05-06T02:38:55.360Z,9.600
2023-05-06T02:39:55.551Z,9.089
2023-05-06T02:40:54.806Z,10.658
2023-05-06T02:41:55.074Z,3.280
2023-05-06T02:42:55.313Z,3.440
2023-05-06T02:43:54.702Z,3.480
2023-05-06T02:44:54.938Z,4.440
2023-05-06T02:45:55.329Z,4.960
2023-05-06T02:46:54.830Z,3.040
2023-05-06T02:47:55.113Z,4.080
2023-05-06T02:48:55.576Z,3.738
2023-05-06T02:49:54.754Z,4.597
2023-05-06T02:50:54.955Z,6.320
2023-05-06T02:51:55.358Z,6.520
2023-05-06T02:52:55.520Z,3.423
2023-05-06T02:53:54.677Z,5.329
2023-05-06T02:54:54.868Z,5.680
2023-05-06T02:55:55.141Z,0.520
2023-05-06T02:56:55.386Z,0.000
2023-05-06T02:57:54.614Z,0.000
2023-05-06T02:58:54.851Z,0.960
2023-05-06T02:59:55.087Z,5.840
2023-05-06T03:00:55.415Z,4.000
2023-05-06T03:01:54.769Z,5.960
2023-05-06T03:02:55.112Z,4.680
2023-05-06T03:03:54.659Z,2.480
2023-05-06T03:04:55.110Z,3.320
2023-05-06T03:05:55.463Z,5.430
2023-05-06T03:08:55.157Z,4.200
2023-05-06T03:09:55.419Z,1.640
2023-05-06T03:10:54.604Z,3.880
2023-05-06T03:11:54.864Z,3.920
2023-05-06T03:12:55.174Z,4.840
2023-05-06T03:14:55.106Z,4.920
2023-05-06T03:15:55.468Z,3.698
2023-05-06T03:16:54.741Z,2.888
2023-05-06T03:18:54.722Z,2.120
2023-05-06T03:19:54.895Z,2.920
2023-05-06T03:20:55.128Z,3.320
2023-05-06T03:21:54.634Z,2.240
2023-05-06T03:22:54.837Z,1.520
2023-05-06T03:23:55.067Z,0.560
2023-05-06T03:24:55.307Z,1.600
2023-05-06T03:25:54.596Z,3.200
2023-05-06T03:26:54.834Z,1.480
2023-05-06T03:27:55.033Z,1.040
2023-05-06T03:28:55.247Z,0.000
2023-05-06T03:29:55.470Z,0.000
2023-05-06T03:30:54.688Z,0.000
2023-05-06T03:31:55.260Z,0.000
2023-05-06T03:32:54.962Z,0.280
2023-05-06T03:33:55.396Z,0.000
2023-05-06T03:36:54.942Z,0.240
2023-05-06T03:37:55.117Z,0.360
2023-05-06T03:38:55.324Z,0.600
2023-05-06T03:39:54.539Z,0.080
2023-05-06T03:40:54.693Z,3.320
2023-05-06T03:41:54.942Z,1.440
2023-05-06T03:42:55.371Z,0.680
2023-05-06T03:43:54.550Z,0.600
2023-05-06T03:44:54.817Z,2.240
2023-05-06T03:45:55.124Z,3.560
2023-05-06T03:46:55.489Z,4.092
2023-05-06T03:47:54.711Z,2.034
2023-05-06T03:49:54.747Z,3.200
2023-05-06T03:50:54.999Z,2.240
2023-05-06T03:51:55.209Z,3.360
2023-05-06T03:52:55.507Z,3.423
2023-05-06T03:53:55.026Z,2.603
2023-05-06T03:54:55.204Z,5.440
2023-05-06T03:55:54.579Z,5.720
2023-05-06T03:56:54.843Z,5.080
2023-05-06T03:57:55.077Z,5.560
2023-05-06T03:58:55.257Z,6.520
2023-05-06T03:59:55.477Z,3.934
2023-05-06T04:00:54.730Z,4.353
2023-05-06T04:01:55.056Z,4.760
2023-05-06T04:03:55.425Z,4.560
2023-05-06T04:04:54.999Z,2.280
2023-05-06T04:05:55.328Z,2.000
2023-05-06T04:06:55.486Z,2.203
2023-05-06T04:07:54.634Z,2.563
2023-05-06T04:08:54.874Z,1.800
2023-05-06T04:09:55.144Z,2.280
2023-05-06T04:10:55.385Z,5.280
2023-05-06T04:11:54.678Z,3.400
2023-05-06T04:12:54.922Z,5.680
2023-05-06T04:14:54.960Z,4.160
2023-05-06T04:15:55.305Z,3.560
2023-05-06T04:16:54.611Z,5.480
2023-05-06T04:17:54.988Z,3.920
2023-05-06T04:18:55.665Z,3.880
2023-05-06T04:19:54.861Z,1.240
2023-05-06T04:20:54.983Z,0.760
2023-05-06T04:21:55.268Z,0.600
2023-05-06T04:22:55.459Z,0.000
2023-05-06T04:23:54.708Z,0.407
2023-05-06T04:24:55.250Z,0.040
2023-05-06T04:25:55.622Z,2.164
2023-05-06T04:26:54.997Z,2.115
2023-05-06T04:27:55.221Z,1.320
2023-05-06T04:28:55.474Z,5.193
2023-05-06T04:29:54.895Z,4.963
2023-05-06T04:30:55.088Z,4.440
2023-05-06T04:31:55.298Z,7.080
2023-05-06T04:32:54.709Z,6.520
2023-05-06T04:33:55.226Z,5.680
2023-05-06T04:34:55.454Z,7.948
2023-05-06T04:35:54.773Z,5.736
2023-05-06T04:36:55.004Z,4.360
2023-05-06T04:37:55.530Z,5.902
2023-05-06T04:38:54.793Z,5.614
2023-05-06T04:39:55.010Z,6.440
2023-05-06T04:40:55.279Z,3.720
2023-05-06T04:41:55.510Z,5.036
2023-05-06T04:42:54.836Z,6.061
2023-05-06T04:43:55.036Z,3.200
2023-05-06T04:44:55.202Z,1.920
2023-05-06T04:45:55.660Z,4.249
2023-05-06T04:46:55.111Z,4.759
2023-05-06T04:47:55.387Z,6.720
2023-05-06T04:48:54.703Z,5.840
2023-05-06T04:49:54.907Z,6.720
2023-05-06T04:50:55.082Z,6.240
2023-05-06T04:51:55.241Z,3.560
2023-05-06T04:52:55.378Z,5.040
2023-05-06T04:53:54.530Z,7.160
2023-05-06T04:54:54.705Z,6.200
2023-05-06T04:55:54.929Z,5.480
2023-05-06T04:56:55.208Z,7.320
2023-05-06T04:57:55.402Z,8.520
2023-05-06T04:58:54.570Z,5.880
2023-05-06T04:59:54.695Z,5.040
2023-05-06T05:00:54.960Z,7.720
2023-05-06T05:01:55.493Z,3.226
2023-05-06T05:02:55.120Z,4.353
2023-05-06T05:03:55.135Z,2.480
2023-05-06T05:04:55.291Z,5.840
2023-05-06T05:05:55.454Z,4.170
2023-05-06T05:06:54.680Z,3.498
2023-05-06T05:07:54.799Z,5.080
2023-05-06T05:08:55.524Z,5.680
2023-05-06T05:09:55.378Z,6.160
2023-05-06T05:10:55.540Z,9.325
2023-05-06T05:11:54.794Z,10.088
2023-05-06T05:12:55.028Z,5.640
2023-05-06T05:46:51.661Z,6.320
2023-05-06T05:48:51.158Z,3.400
2023-05-06T05:49:51.602Z,9.200
2023-05-06T05:51:51.036Z,8.080
2023-05-06T05:52:51.262Z,8.560
2023-05-06T05:53:51.438Z,4.525
2023-05-06T05:54:50.643Z,6.346
2023-05-06T05:55:50.818Z,12.640
2023-05-06T05:56:50.939Z,5.480
2023-05-06T05:58:09.103Z,6.760
2023-05-06T05:59:30.429Z,7.520
2023-05-06T06:00:29.596Z,5.840
2023-05-06T06:01:29.757Z,12.520
2023-05-06T06:02:30.095Z,11.120
2023-05-06T06:03:29.922Z,16.960
2023-05-06T06:04:30.279Z,13.520
2023-05-06T06:05:29.867Z,11.280
2023-05-06T06:06:29.990Z,12.320
2023-05-06T06:07:30.124Z,14.400
2023-05-06T06:08:30.338Z,17.520
2023-05-06T06:09:30.479Z,10.544
2023-05-06T06:11:29.931Z,9.920
2023-05-06T06:12:29.542Z,12.320
2023-05-06T06:13:29.988Z,12.320
2023-05-06T06:14:30.398Z,8.400
2023-05-06T06:15:29.537Z,13.120
2023-05-06T06:16:29.756Z,10.720
2023-05-06T06:17:30.461Z,12.680
2023-05-06T06:18:29.966Z,9.840
2023-05-06T06:19:30.275Z,8.720
2023-05-06T06:20:30.429Z,10.720
2023-05-06T06:21:29.623Z,16.000
2023-05-06T06:22:29.798Z,17.480
2023-05-06T06:23:30.183Z,7.280
2023-05-06T06:24:30.367Z,13.920
2023-05-06T06:25:29.545Z,13.360
2023-05-06T06:26:29.715Z,11.440
2023-05-06T06:27:29.901Z,8.720
2023-05-06T06:28:30.097Z,14.160
2023-05-06T06:29:30.257Z,13.680
2023-05-06T06:30:30.409Z,10.080
2023-05-06T06:31:29.599Z,11.120
2023-05-06T06:32:30.390Z,8.000
2023-05-06T06:33:29.797Z,8.360
2023-05-06T06:34:30.138Z,8.920
2023-05-06T06:35:30.317Z,12.000
2023-05-06T06:36:30.426Z,10.348
2023-05-06T06:37:29.602Z,8.136
2023-05-06T06:38:29.767Z,10.320
2023-05-06T06:39:30.032Z,13.680
2023-05-06T06:40:30.275Z,11.960
2023-05-06T06:41:30.450Z,6.846
2023-05-06T06:42:29.731Z,8.583
2023-05-06T06:43:30.518Z,9.246
2023-05-06T06:46:30.293Z,11.520
2023-05-06T06:47:30.504Z,12.393
2023-05-06T06:48:29.954Z,6.305
2023-05-06T06:49:30.177Z,6.560
2023-05-06T06:50:30.370Z,8.160
2023-05-06T06:51:30.523Z,11.056
2023-05-06T06:52:29.830Z,10.129
2023-05-06T06:53:30.023Z,15.040
2023-05-06T06:54:30.482Z,11.960
2023-05-06T06:55:29.633Z,10.240
2023-05-06T06:56:29.737Z,11.760
2023-05-06T06:57:29.975Z,13.920
2023-05-06T06:58:30.196Z,12.160
2023-05-06T06:59:30.305Z,7.680
2023-05-06T07:00:30.546Z,9.010
2023-05-06T07:01:29.656Z,10.210
2023-05-06T07:02:30.499Z,10.111
2023-05-06T07:04:30.241Z,9.280
2023-05-06T07:05:29.901Z,12.560
2023-05-06T07:06:30.333Z,11.360
2023-05-06T07:07:30.523Z,11.370
2023-05-06T07:09:29.774Z,8.120
2023-05-06T07:10:30.516Z,10.280
2023-05-06T07:11:29.643Z,12.840
2023-05-06T07:12:29.875Z,9.080
2023-05-06T07:13:30.287Z,8.240
2023-05-06T07:14:30.426Z,14.557
2023-05-06T07:15:30.550Z,9.960
2023-05-06T07:16:29.768Z,8.786
2023-05-06T07:17:30.501Z,5.823
2023-05-06T07:20:30.512Z,7.948
2023-05-06T07:21:29.711Z,8.827
2023-05-06T07:22:30.078Z,10.520
2023-05-06T07:23:31.923Z,6.400
2023-05-06T07:24:30.371Z,8.160
2023-05-06T07:25:29.632Z,9.760
2023-05-06T07:26:29.807Z,9.280
2023-05-06T07:27:29.981Z,9.120
2023-05-06T07:28:30.133Z,6.800
2023-05-06T07:29:30.609Z,10.040
2023-05-06T07:30:29.828Z,8.720
2023-05-06T07:31:30.020Z,4.760
2023-05-06T07:33:30.156Z,9.920
2023-05-06T07:34:30.303Z,7.960
2023-05-06T07:35:30.467Z,8.656
2023-05-06T07:36:29.664Z,12.041
2023-05-06T07:37:30.552Z,6.256
2023-05-06T07:38:29.823Z,8.380
2023-05-06T07:39:29.994Z,11.000
2023-05-06T07:40:30.187Z,8.440
2023-05-06T07:41:30.403Z,6.000
2023-05-06T07:42:29.615Z,9.200
2023-05-06T07:43:29.929Z,9.680
2023-05-06T07:44:30.052Z,11.520
2023-05-06T07:45:30.239Z,5.120
2023-05-06T07:46:30.765Z,3.856
2023-05-06T07:47:29.982Z,4.637
2023-05-06T07:48:30.193Z,0.720
2023-05-06T07:49:29.615Z,3.600
2023-05-06T07:50:29.854Z,6.200
2023-05-06T07:51:30.382Z,3.440
2023-05-06T07:52:29.554Z,1.840
2023-05-06T07:53:29.693Z,2.000
2023-05-06T07:54:29.838Z,6.160
2023-05-06T07:55:30.074Z,8.800
2023-05-06T07:56:29.770Z,12.960
2023-05-06T07:57:29.931Z,8.320
2023-05-06T07:58:30.097Z,7.280
2023-05-06T07:59:30.290Z,7.840
2023-05-06T08:00:30.482Z,11.410
2023-05-06T08:01:29.692Z,10.658
2023-05-06T08:02:30.159Z,5.120
2023-05-06T08:04:30.493Z,3.344
2023-05-06T08:05:30.468Z,9.280
2023-05-06T08:07:29.859Z,4.640
2023-05-06T08:08:30.040Z,4.240
2023-05-06T08:09:30.223Z,7.440
2023-05-06T08:10:31.340Z,7.840
2023-05-06T08:12:29.759Z,3.580
2023-05-06T08:13:30.106Z,5.280
2023-05-06T08:14:30.202Z,4.000
2023-05-06T08:15:30.408Z,3.680
2023-05-06T08:16:30.680Z,5.980
2023-05-06T08:17:30.209Z,5.207
2023-05-06T08:20:30.122Z,2.960
2023-05-06T08:21:30.314Z,7.120
2023-05-06T08:22:30.455Z,9.920
2023-05-06T08:23:29.685Z,5.040
2023-05-06T08:24:29.836Z,4.400
2023-05-06T08:25:30.018Z,4.720
2023-05-06T08:26:30.243Z,8.040
2023-05-06T08:27:30.376Z,4.240
2023-05-06T08:28:30.548Z,6.374
2023-05-06T08:29:31.218Z,5.614
2023-05-06T08:30:31.339Z,3.600
2023-05-06T08:31:31.418Z,3.226
2023-05-06T08:32:29.940Z,2.603
2023-05-06T08:33:30.325Z,2.920
2023-05-06T08:34:30.519Z,4.721
2023-05-06T08:35:30.311Z,10.536
2023-05-06T08:36:30.493Z,3.541
2023-05-06T08:39:31.130Z,11.840
2023-05-06T08:40:31.224Z,4.320
2023-05-06T08:41:31.305Z,3.440
2023-05-06T08:42:31.392Z,6.256
2023-05-06T08:43:29.555Z,5.369
2023-05-06T08:44:31.595Z,2.240
2023-05-06T08:45:33.385Z,3.280
2023-05-06T08:46:30.983Z,6.560
2023-05-06T08:48:29.944Z,4.840
2023-05-06T08:49:31.041Z,5.920
2023-05-06T08:50:31.097Z,2.720
2023-05-06T08:51:31.186Z,4.880
2023-05-06T08:52:31.291Z,8.400
2023-05-06T08:53:31.366Z,6.846
2023-05-06T08:54:30.445Z,8.583
2023-05-06T08:58:30.302Z,13.520
2023-05-06T08:59:30.555Z,6.138
2023-05-06T09:00:31.064Z,3.742
2023-05-06T09:01:31.139Z,2.360
2023-05-06T09:02:31.311Z,4.280
2023-05-06T09:03:31.540Z,5.120
2023-05-06T09:04:31.400Z,4.400
2023-05-06T09:05:31.474Z,14.951
2023-05-06T09:06:29.639Z,9.519
2023-05-06T09:07:29.823Z,3.600
2023-05-06T09:08:30.119Z,3.440
2023-05-06T09:09:30.419Z,3.520
2023-05-06T09:10:29.932Z,2.560
2023-05-06T09:11:30.950Z,3.760
2023-05-06T09:12:30.131Z,4.080
2023-05-06T09:13:30.528Z,2.715
2023-05-06T09:16:29.735Z,2.359
2023-05-06T09:17:30.461Z,3.920
2023-05-06T09:18:29.762Z,2.120
2023-05-06T09:19:30.277Z,4.920
2023-05-06T09:20:29.953Z,5.360
2023-05-06T09:21:31.006Z,8.640
2023-05-06T09:22:31.145Z,9.600
2023-05-06T09:23:31.205Z,3.920
2023-05-06T09:24:31.282Z,4.000
2023-05-06T09:26:31.561Z,10.739
2023-05-06T09:28:30.211Z,5.800
2023-05-06T09:29:30.403Z,8.480
2023-05-06T09:30:30.533Z,3.620
2023-05-06T09:31:31.039Z,3.661
2023-05-06T09:32:31.039Z,6.480
2023-05-06T09:33:31.121Z,6.400
2023-05-06T09:34:31.187Z,3.520
2023-05-06T09:35:30.373Z,10.160
2023-05-06T09:36:30.349Z,14.400
2023-05-06T09:37:31.451Z,6.610
2023-05-06T09:41:29.815Z,10.088
2023-05-06T09:42:30.960Z,5.440
2023-05-06T09:43:31.023Z,3.520
2023-05-06T09:44:31.117Z,12.000
2023-05-06T09:45:31.192Z,14.400
2023-05-06T09:46:31.319Z,10.400
2023-05-06T09:47:31.384Z,5.440
2023-05-06T09:48:31.432Z,9.280
2023-05-06T09:49:31.511Z,10.480
2023-05-06T09:51:30.737Z,5.240
2023-05-06T09:52:30.792Z,2.400
2023-05-06T09:53:30.865Z,6.440
2023-05-06T09:54:30.971Z,7.040
2023-05-06T09:55:31.054Z,6.000
2023-05-06T09:56:31.108Z,11.760
2023-05-06T09:57:31.186Z,10.640
2023-05-06T09:58:31.317Z,6.480
2023-05-06T09:59:30.018Z,14.160
2023-05-06T10:00:31.469Z,15.280
2023-05-06T10:03:30.808Z,14.725
2023-05-06T10:04:30.104Z,6.320
2023-05-06T10:05:31.155Z,14.800
2023-05-06T10:06:30.412Z,4.040
2023-05-06T10:08:31.202Z,4.560
2023-05-06T10:09:31.287Z,5.880
2023-05-06T10:10:31.375Z,5.351
2023-05-06T10:11:31.462Z,11.680
2023-05-06T10:12:31.539Z,16.597
2023-05-06T10:14:30.204Z,6.200
2023-05-06T10:15:30.390Z,7.120
2023-05-06T10:16:30.016Z,21.680
2023-05-06T10:17:30.065Z,15.040
2023-05-06T10:18:31.150Z,14.560
2023-05-06T10:19:31.224Z,8.640
2023-05-06T10:20:31.314Z,17.680
2023-05-06T10:21:31.412Z,14.321
2023-05-06T10:22:30.131Z,7.403
2023-05-06T10:23:30.332Z,5.120
2023-05-06T10:24:30.626Z,16.603
2023-05-06T10:25:29.833Z,18.549
2023-05-06T10:26:30.405Z,16.720
2023-05-06T10:27:29.598Z,13.280
2023-05-06T10:28:35.191Z,22.800
2023-05-06T10:30:29.610Z,14.560
2023-05-06T10:31:29.828Z,17.760
2023-05-06T10:32:30.404Z,12.320
2023-05-06T10:33:29.846Z,11.960
2023-05-06T10:34:30.293Z,7.840
2023-05-06T10:35:30.454Z,11.607
2023-05-06T10:36:29.706Z,17.858
2023-05-06T10:37:29.873Z,18.400
2023-05-06T10:38:30.073Z,12.400
2023-05-06T10:39:30.438Z,10.960
2023-05-06T10:40:30.279Z,7.520
2023-05-06T10:41:30.404Z,7.600
2023-05-06T10:42:29.599Z,11.520
2023-05-06T10:43:29.769Z,26.080
2023-05-06T10:44:29.927Z,19.360
2023-05-06T10:45:30.281Z,30.840
2023-05-06T10:46:29.689Z,16.160
2023-05-06T10:47:29.920Z,25.160
2023-05-06T10:48:30.327Z,24.320
2023-05-06T10:49:30.528Z,14.557
2023-05-06T10:51:30.066Z,18.400
2023-05-06T10:52:30.262Z,23.360
2023-05-06T10:53:30.495Z,15.187
2023-05-06T10:54:29.656Z,14.563
2023-05-06T10:55:29.821Z,6.320
2023-05-06T10:56:30.320Z,9.920
2023-05-06T10:57:31.018Z,19.397
2023-05-06T10:58:30.182Z,19.322
2023-05-06T10:59:30.377Z,8.960
2023-05-06T11:00:29.559Z,6.600
2023-05-06T11:01:30.066Z,9.120
2023-05-06T11:04:30.278Z,18.080
2023-05-06T11:05:30.408Z,15.360
2023-05-06T11:06:30.548Z,15.344
2023-05-06T11:07:29.817Z,20.827
2023-05-06T11:08:29.948Z,20.600
2023-05-06T11:09:30.137Z,18.360
2023-05-06T11:10:30.298Z,20.000
2023-05-06T11:11:30.521Z,21.679
2023-05-06T11:12:29.719Z,12.936
2023-05-06T11:13:30.118Z,27.600
2023-05-06T11:15:29.858Z,11.280
2023-05-06T11:16:30.149Z,16.360
2023-05-06T11:17:29.891Z,9.800
2023-05-06T11:18:30.288Z,6.280
2023-05-06T11:19:30.529Z,8.498
2023-05-06T11:20:29.791Z,22.658
2023-05-06T11:21:29.922Z,11.200
2023-05-06T11:22:30.198Z,16.160
2023-05-06T11:23:30.334Z,23.040
2023-05-06T11:24:30.566Z,6.452
2023-05-06T11:25:29.750Z,12.366
2023-05-06T11:26:30.083Z,14.480
2023-05-06T11:27:30.300Z,10.560
2023-05-06T11:28:30.452Z,4.603
2023-05-06T11:29:29.603Z,6.508
2023-05-06T11:30:29.797Z,8.720
2023-05-06T11:31:30.261Z,3.480
2023-05-06T11:32:29.739Z,5.560
2023-05-06T11:33:30.140Z,12.840
2023-05-06T11:34:30.324Z,11.080
2023-05-06T11:35:29.581Z,7.920
2023-05-06T11:36:29.765Z,4.040
2023-05-06T11:37:30.164Z,6.640
2023-05-06T11:38:29.757Z,8.320
2023-05-06T11:39:30.114Z,10.760
2023-05-06T11:40:30.359Z,12.640
2023-05-06T11:41:29.793Z,34.400
2023-05-06T11:42:30.008Z,25.880
2023-05-06T11:43:30.163Z,15.120
2023-05-06T11:44:30.282Z,13.920
2023-05-06T11:45:30.495Z,14.243
2023-05-06T11:46:29.644Z,8.868
2023-05-06T11:47:30.295Z,9.520
2023-05-06T11:49:30.018Z,16.000
2023-05-06T11:50:30.057Z,12.560
2023-05-06T11:51:30.182Z,11.440
2023-05-06T11:52:30.446Z,7.920
2023-05-06T11:53:29.638Z,10.160
2023-05-06T11:54:29.778Z,21.200
2023-05-06T11:55:30.252Z,12.080
2023-05-06T11:56:30.390Z,18.480
2023-05-06T11:57:30.545Z,17.548
2023-05-06T11:58:29.902Z,24.814
2023-05-06T11:59:30.228Z,13.400
2023-05-06T12:00:30.470Z,10.780
2023-05-06T12:01:29.645Z,12.203
2023-05-06T12:02:30.016Z,14.080
2023-05-06T12:03:29.770Z,16.080
2023-05-06T12:04:30.563Z,9.993
2023-05-06T12:06:29.536Z,12.960
2023-05-06T12:07:29.712Z,11.280
2023-05-06T12:08:32.295Z,13.760
2023-05-06T12:09:29.760Z,17.360
2023-05-06T12:10:29.988Z,13.760
2023-05-06T12:11:30.210Z,14.000
2023-05-06T12:12:30.581Z,6.295
2023-05-06T12:14:30.303Z,7.440
2023-05-06T12:15:30.541Z,5.784
2023-05-06T12:16:29.780Z,12.488
2023-05-06T12:17:30.453Z,7.360
2023-05-06T12:18:29.852Z,7.840
2023-05-06T12:19:30.033Z,20.800
2023-05-06T12:20:30.437Z,12.400
2023-05-06T12:21:29.650Z,14.280
2023-05-06T12:22:29.821Z,23.600
2023-05-06T12:23:29.713Z,22.880
2023-05-06T12:25:29.695Z,23.120
2023-05-06T12:26:29.813Z,18.480
2023-05-06T12:27:29.997Z,18.400
2023-05-06T12:28:30.157Z,12.880
2023-05-06T12:29:30.417Z,13.600
2023-05-06T12:30:29.613Z,12.400
2023-05-06T12:31:29.761Z,14.960
2023-05-06T12:32:30.384Z,14.400
2023-05-06T12:33:29.911Z,22.400
2023-05-06T12:34:30.020Z,20.960
2023-05-06T12:35:30.229Z,14.000
2023-05-06T12:36:30.447Z,17.626
2023-05-06T12:37:29.646Z,14.400
2023-05-06T12:38:29.800Z,14.320
2023-05-06T12:39:30.028Z,17.080
2023-05-06T12:40:30.395Z,11.440
2023-05-06T12:41:29.767Z,16.160
2023-05-06T12:42:30.036Z,18.880
2023-05-06T12:43:30.236Z,14.000
2023-05-06T12:44:30.534Z,8.656
2023-05-06T12:45:29.763Z,7.810
2023-05-06T12:46:30.237Z,15.680
2023-05-06T12:47:30.397Z,16.480
2023-05-06T12:50:30.184Z,12.000
2023-05-06T12:51:30.435Z,6.160
2023-05-06T12:52:29.636Z,15.360
2023-05-06T12:53:29.806Z,18.720
2023-05-06T12:54:30.023Z,14.400
2023-05-06T12:55:30.247Z,19.680
2023-05-06T12:56:30.478Z,12.400
2023-05-06T12:57:29.621Z,12.240
2023-05-06T12:58:29.901Z,14.960
2023-05-06T12:59:30.145Z,17.040
2023-05-06T13:00:30.355Z,10.640
2023-05-06T13:02:30.356Z,5.680
2023-05-06T13:03:30.484Z,10.960
2023-05-06T13:04:29.903Z,9.320
2023-05-06T13:05:30.053Z,7.920
2023-05-06T13:06:30.254Z,13.680
2023-05-06T13:07:30.480Z,10.190
2023-05-06T13:08:29.714Z,13.464
2023-05-06T13:09:29.874Z,11.840
2023-05-06T13:10:30.091Z,6.960
2023-05-06T13:11:30.247Z,13.200
2023-05-06T13:12:30.342Z,6.720
2023-05-06T13:13:30.020Z,9.520
2023-05-06T13:14:30.241Z,13.160
2023-05-06T13:15:30.423Z,16.960
2023-05-06T13:16:29.574Z,25.280
2023-05-06T13:17:30.297Z,24.960
2023-05-06T13:18:29.756Z,25.520
2023-05-06T13:19:34.892Z,26.400
2023-05-06T13:21:30.315Z,17.840
2023-05-06T13:22:32.205Z,14.872
2023-05-06T13:23:29.705Z,19.688
2023-05-06T13:24:29.892Z,16.480
2023-05-06T13:25:30.048Z,23.680
2023-05-06T13:26:29.979Z,14.520
2023-05-06T13:27:30.164Z,10.440
2023-05-06T13:28:30.354Z,19.840
2023-05-06T13:29:29.756Z,15.400
2023-05-06T13:30:30.230Z,14.200
2023-05-06T13:31:30.721Z,10.780
2023-05-06T13:32:30.089Z,4.475
2023-05-06T13:33:30.528Z,3.895
2023-05-06T13:34:29.660Z,15.254
2023-05-06T13:35:29.795Z,20.480
2023-05-06T13:36:29.922Z,8.080
2023-05-06T13:37:30.083Z,8.320
2023-05-06T13:38:30.225Z,17.640
2023-05-06T13:39:30.487Z,16.170
2023-05-06T13:40:29.649Z,18.631
2023-05-06T13:41:29.941Z,23.680
2023-05-06T13:42:30.218Z,24.560
2023-05-06T13:43:30.443Z,16.440
2023-05-06T13:45:29.884Z,24.800
2023-05-06T13:46:30.148Z,11.680
2023-05-06T13:47:30.478Z,5.360
2023-05-06T13:48:30.111Z,9.920
2023-05-06T13:50:30.535Z,17.680
2023-05-06T13:51:29.720Z,15.840
2023-05-06T13:52:29.898Z,30.000
2023-05-06T13:53:30.174Z,26.160
2023-05-06T13:54:30.371Z,14.800
2023-05-06T13:55:30.558Z,17.862
2023-05-06T13:56:29.724Z,12.773
2023-05-06T13:57:30.043Z,16.960
2023-05-06T13:58:30.250Z,15.680
2023-05-06T13:59:30.511Z,8.066
2023-05-06T14:01:30.428Z,17.840
2023-05-06T14:02:29.901Z,19.760
2023-05-06T14:03:30.776Z,15.816
2023-05-06T14:05:30.337Z,7.200
2023-05-06T14:06:31.353Z,7.790
2023-05-06T14:07:30.504Z,12.480
2023-05-06T14:11:30.593Z,12.905
2023-05-06T14:12:29.810Z,17.817
2023-05-06T14:13:30.093Z,12.560
2023-05-06T14:16:30.118Z,15.440
2023-05-06T14:17:29.854Z,19.840
2023-05-06T14:18:30.250Z,22.560
2023-05-06T14:19:30.601Z,14.800
2023-05-06T14:21:29.988Z,26.960
2023-05-06T14:22:30.161Z,29.280
2023-05-06T14:23:30.356Z,22.640
2023-05-06T14:24:30.557Z,22.190
2023-05-06T14:25:29.961Z,20.583
2023-05-06T14:26:30.226Z,25.680
2023-05-06T14:27:29.646Z,18.400
2023-05-06T14:28:29.797Z,25.040
2023-05-06T14:29:30.061Z,33.120
2023-05-06T14:30:30.239Z,25.440
2023-05-06T14:31:30.583Z,27.777
2023-05-06T14:32:30.194Z,25.953
2023-05-06T14:34:29.931Z,31.760
2023-05-06T14:35:30.160Z,26.720
2023-05-06T14:36:30.338Z,25.200